Time;durP1;ratioP1;P1;durP2;ratioP2;P2;SDS_P1;SDS_P2;PMS_P1;PMS_P2;Temp;Humidity;BMP_temperature;BMP_pressure;BME280_temperature;BME280_humidity;BME280_pressure;Samples;Min_cycle;Max_cycle;Signal;HPM_P1;HPM_P2
2023/04/11 10:58:58;;;;;;;;;;;;;;;;;;5109482;27;13479;-68
2023/04/11 11:01:24;;;;;;;;;;;;;;;;;;5108774;28;7532;-69
2023/04/11 11:03:50;;;;;;;;;;;;;;;;;;5106967;28;7543;-69
2023/04/11 11:06:16;;;;;;;;;;;;;;;;;;5108415;28;7589;-69
2023/04/11 11:08:41;;;;;;;;;;;;;;;;;;5108498;28;7538;-70
2023/04/11 11:11:06;;;;;;;;;;;;;;;;;;5108563;28;7544;-68
2023/04/11 11:13:31;;;;;;;;;;;;;;;;;;5107376;28;7546;-68
2023/04/11 11:15:56;;;;;;;;;;;;;;;;;;5109101;28;7524;-67
2023/04/11 11:18:21;;;;;;;;;;;;;;;;;;5106849;28;7604;-68
2023/04/11 11:20:46;;;;;;;;;;;;;;;;;;5108590;28;7657;-67
2023/04/11 11:23:12;;;;;;;;;;;;;;;;;;5107034;28;7516;-68
2023/04/11 11:25:37;;;;;;;;;;;;;;;;;;5106813;28;7615;-65
2023/04/11 11:28:02;;;;;;;;;;;;;;;;;;5106705;28;7955;-66
2023/04/11 11:30:27;;;;;;;;;;;;;;;;;;5107358;28;7542;-65
2023/04/11 11:32:52;;;;;;;;;;;;;;;;;;5102050;28;7516;-64
2023/04/11 11:35:18;;;;;;;;;;;;;;;;;;5097772;28;7528;-65
2023/04/11 11:37:43;;;;;;;;;;;;;;;;;;5106877;28;7577;-65
2023/04/11 11:40:11;;;;;;;;;;;;;;;;;;5106708;28;7524;-66
2023/04/11 11:42:36;;;;;;;;;;;;;;;;;;5107997;28;7528;-75
2023/04/11 11:45:01;;;;;;;;;;;;;;;;;;5106599;28;7551;-73
2023/04/11 11:47:27;;;;;;;;;;;;;;;;;;5106713;28;7520;-70
2023/04/11 11:49:52;;;;;;;;;;;;;;;;;;5108032;28;7611;-73
2023/04/11 11:52:17;;;;;;;;;;;;;;;;;;5108275;28;7568;-72
2023/04/11 11:54:42;;;;;;;;;;;;;;;;;;5107789;28;7968;-69
2023/04/11 11:57:07;;;;;;;;;;;;;;;;;;5106627;28;7520;-67
2023/04/11 11:59:32;;;;;;;;;;;;;;;;;;5107510;28;7544;-68
2023/04/11 12:01:57;;;;;;;;;;;;;;;;;;5105943;28;7658;-68
2023/04/11 12:04:23;;;;;;;;;;;;;;;;;;5106297;28;8279;-68
2023/04/11 12:06:48;;;;;;;;;;;;;;;;;;5105916;28;7536;-68
2023/04/11 12:09:13;;;;;;;;;;;;;;;;;;5098509;28;7528;-67
2023/04/11 12:11:38;;;;;;;;;;;;;;;;;;5092336;28;7532;-68
2023/04/11 12:14:03;;;;;;;;;;;;;;;;;;5092335;28;7624;-68
2023/04/11 12:16:29;;;;;;;;;;;;;;;;;;5093829;28;7616;-68
2023/04/11 12:18:54;;;;;;;;;;;;;;;;;;5093346;28;7673;-68
2023/04/11 12:21:19;;;;;;;;;;;;;;;;;;5092760;28;7562;-69
2023/04/11 12:23:44;;;;;;;;;;;;;;;;;;5092655;28;7517;-67
2023/04/11 12:26:10;;;;;;;;;;;;;;;;;;5093679;28;7585;-68
2023/04/11 12:28:35;;;;;;;;;;;;;;;;;;5093902;28;7995;-67
2023/04/11 12:31:00;;;;;;;;;;;;;;;;;;5094036;28;7540;-68
2023/04/11 12:33:25;;;;;;;;;;;;;;;;;;5092215;28;8019;-68
2023/04/11 12:35:50;;;;;;;;;;;;;;;;;;5093220;28;7524;-68
2023/04/11 12:38:16;;;;;;;;;;;;;;;;;;5093506;28;7528;-68
2023/04/11 12:40:42;;;;;;;;;;;;;;;;;;5093362;28;7520;-67
2023/04/11 12:43:07;;;;;;;;;;;;;;;;;;5093481;28;7576;-68
2023/04/11 12:45:32;;;;;;;;;;;;;;;;;;5093470;28;7538;-68
2023/04/11 12:47:57;;;;;;;;;;;;;;;;;;5093442;28;7524;-68
2023/04/11 12:50:22;;;;;;;;;;;;;;;;;;5092051;28;7525;-67
2023/04/11 12:52:48;;;;;;;;;;;;;;;;;;5093406;28;7524;-68
2023/04/11 12:55:13;;;;;;;;;;;;;;;;;;5091452;28;7516;-68
2023/04/11 12:57:38;;;;;;;;;;;;;;;;;;5093086;28;7569;-68
2023/04/11 13:00:07;;;;;;;;;;;;;;;;;;5093437;28;7531;-69
2023/04/11 13:02:32;;;;;;;;;;;;;;;;;;5093019;28;7578;-68
2023/04/11 13:04:59;;;;;;;;;;;;;;;;;;5093469;28;7528;-68
2023/04/11 13:07:24;;;;;;;;;;;;;;;;;;5092997;28;7524;-67
2023/04/11 13:09:49;;;;;;;;;;;;;;;;;;5092788;28;7720;-67
2023/04/11 13:12:15;;;;;;;;;;;;;;;;;;5091531;28;7527;-68
2023/04/11 13:14:40;;;;;;;;;;;;;;;;;;5093069;28;7535;-68
2023/04/11 13:17:05;;;;;;;;;;;;;;;;;;5092799;28;7623;-68
2023/04/11 13:19:31;;;;;;;;;;;;;;;;;;5093152;28;7600;-67
2023/04/11 13:21:56;;;;;;;;;;;;;;;;;;5091682;28;7516;-67
2023/04/11 13:24:21;;;;;;;;;;;;;;;;;;5092932;28;7524;-67
2023/04/11 13:26:46;;;;;;;;;;;;;;;;;;5091244;28;7531;-67
2023/04/11 13:29:11;;;;;;;;;;;;;;;;;;5092612;28;7532;-68
2023/04/11 13:31:36;;;;;;;;;;;;;;;;;;5091864;28;7528;-66
2023/04/11 13:34:01;;;;;;;;;;;;;;;;;;5092590;28;7525;-67
2023/04/11 13:36:27;;;;;;;;;;;;;;;;;;5092665;28;7611;-67
2023/04/11 13:38:52;;;;;;;;;;;;;;;;;;5092414;28;7536;-67
2023/04/11 13:41:17;;;;;;;;;;;;;;;;;;5092325;28;7627;-68
2023/04/11 13:43:42;;;;;;;;;;;;;;;;;;5092462;28;7999;-68
2023/04/11 13:46:07;;;;;;;;;;;;;;;;;;5091036;28;7516;-68
2023/04/11 13:48:33;;;;;;;;;;;;;;;;;;5092306;28;7548;-68
2023/04/11 13:50:58;;;;;;;;;;;;;;;;;;5091977;28;7535;-68
2023/04/11 13:53:23;;;;;;;;;;;;;;;;;;5092264;28;7531;-68
2023/04/11 13:55:50;;;;;;;;;;;;;;;;;;5090478;28;7539;-67
2023/04/11 13:58:15;;;;;;;;;;;;;;;;;;5091816;28;7540;-68
2023/04/11 14:00:40;;;;;;;;;;;;;;;;;;5091988;28;7531;-67
2023/04/11 14:03:05;;;;;;;;;;;;;;;;;;5091961;28;7536;-68
2023/04/11 14:05:33;;;;;;;;;;;;;;;;;;5092008;28;7554;-68
2023/04/11 14:07:59;;;;;;;;;;;;;;;;;;5091619;28;7547;-68
2023/04/11 14:10:24;;;;;;;;;;;;;;;;;;5091738;28;7528;-67
2023/04/11 14:12:49;;;;;;;;;;;;;;;;;;5091894;28;7521;-68
2023/04/11 14:15:15;;;;;;;;;;;;;;;;;;5092439;28;7612;-68
2023/04/11 14:17:42;;;;;;;;;;;;;;;;;;5091659;28;7622;-68
2023/04/11 14:20:08;;;;;;;;;;;;;;;;;;5091830;28;7536;-68
2023/04/11 14:22:35;;;;;;;;;;;;;;;;;;5091843;28;7535;-68
2023/04/11 14:25:00;;;;;;;;;;;;;;;;;;5091498;28;7520;-68
2023/04/11 14:27:25;;;;;;;;;;;;;;;;;;5091272;28;7524;-68
2023/04/11 14:29:51;;;;;;;;;;;;;;;;;;5091692;28;7527;-67
2023/04/11 14:32:17;;;;;;;;;;;;;;;;;;5091253;28;7535;-68
2023/04/11 14:34:42;;;;;;;;;;;;;;;;;;5091478;28;7527;-67
2023/04/11 14:37:07;;;;;;;;;;;;;;;;;;5091345;28;7532;-67
2023/04/11 14:39:32;;;;;;;;;;;;;;;;;;5091333;28;7527;-67
2023/04/11 14:42:00;;;;;;;;;;;;;;;;;;5091343;28;7631;-67
2023/04/11 14:44:26;;;;;;;;;;;;;;;;;;5091132;28;7512;-68
2023/04/11 14:46:51;;;;;;;;;;;;;;;;;;5089364;28;7516;-68
2023/04/11 14:49:16;;;;;;;;;;;;;;;;;;5091217;28;7524;-68
2023/04/11 14:51:41;;;;;;;;;;;;;;;;;;5097113;28;7528;-66
2023/04/11 14:54:07;;;;;;;;;;;;;;;;;;5103529;28;7523;-70
2023/04/11 14:56:35;;;;;;;;;;;;;;;;;;5100958;28;7524;-78
2023/04/11 14:59:09;;;;;;;;;;;;;;;;;;5102836;28;7551;-81
2023/04/11 15:01:34;;;;;;;;;;;;;;;;;;5090100;28;7566;-77
2023/04/11 15:04:02;;;;;;;;;;;;;;;;;;5090397;28;7548;-77
2023/04/11 15:06:40;;;;;;;;;;;;;;;;;;5089539;28;7536;-75
2023/04/11 15:09:18;;;;;;;;;;;;;;;;;;5090206;28;7524;-74
2023/04/11 15:11:43;;;;;;;;;;;;;;;;;;5090147;28;7531;-77
2023/04/11 15:14:15;;;;;;;;;;;;;;;;;;5090832;28;7516;-77
2023/04/11 15:16:43;;;;;;;;;;;;;;;;;;5088841;28;7801;-75
2023/04/11 15:19:08;;;;;;;;;;;;;;;;;;5091152;28;7528;-70
2023/04/11 15:21:33;;;;;;;;;;;;;;;;;;5089834;28;7524;-74
2023/04/11 15:24:13;;;;;;;;;;;;;;;;;;5090925;28;7841;-73
2023/04/11 15:26:40;;;;;;;;;;;;;;;;;;5095443;28;7986;-79
2023/04/11 15:29:06;;;;;;;;;;;;;;;;;;5091461;28;7521;-73
2023/04/11 15:31:43;;;;;;;;;;;;;;;;;;5091851;28;7527;-74
2023/04/11 15:37:00;;;;;;;;;;;;;;;;;;5089759;28;7532;-74
2023/04/11 15:39:25;;;;;;;;;;;;;;;;;;5086696;28;7536;-82
2023/04/11 15:41:56;;;;;;;;;;;;;;;;;;5070696;28;7601;-86
2023/04/11 15:44:43;;;;;;;;;;;;;;;;;;;;;
2023/04/11 15:47:15;;;;;;;;;;;;;;;;;;5086979;28;7995;-74
2023/04/11 15:49:40;;;;;;;;;;;;;;;;;;5072221;28;7555;-79
2023/04/11 15:52:06;;;;;;;;;;;;;;;;;;5072457;28;7516;-74
2023/04/11 15:54:31;;;;;;;;;;;;;;;;;;5073633;28;7524;-70
2023/04/11 15:56:56;;;;;;;;;;;;;;;;;;5073875;28;7609;-71
2023/04/11 15:59:23;;;;;;;;;;;;;;;;;;5073856;28;7947;-75
2023/04/11 16:01:48;;;;;;;;;;;;;;;;;;5086590;28;7586;-79
2023/04/11 16:04:15;;;;;;;;;;;;;;;;;;5087412;28;7528;-74
2023/04/11 16:06:40;;;;;;;;;;;;;;;;;;5092015;28;7543;-70
2023/04/11 16:09:05;;;;;;;;;;;;;;;;;;5089811;28;7539;-71
2023/04/11 16:11:30;;;;;;;;;;;;;;;;;;5091478;28;7540;-73
2023/04/11 16:13:55;;;;;;;;;;;;;;;;;;5092798;28;7539;-72
2023/04/11 16:16:20;;;;;;;;;;;;;;;;;;5102080;28;7983;-74
2023/04/11 16:18:46;;;;;;;;;;;;;;;;;;5094433;28;7991;-79
2023/04/11 16:21:11;;;;;;;;;;;;;;;;;;5095175;28;7539;-80
2023/04/11 16:23:36;;;;;;;;;;;;;;;;;;5093772;28;7525;-72
2023/04/11 16:26:02;;;;;;;;;;;;;;;;;;5092882;28;7516;-72
2023/04/11 16:28:27;;;;;;;;;;;;;;;;;;5072588;28;7540;-71
2023/04/11 16:30:52;;;;;;;;;;;;;;;;;;5073096;28;7544;-69
2023/04/11 16:33:17;;;;;;;;;;;;;;;;;;5109216;28;7536;-65
2023/04/11 16:35:42;;;;;;;;;;;;;;;;;;5101734;28;7590;-70
2023/04/11 16:38:07;;;;;;;;;;;;;;;;;;5082173;28;7528;-71
2023/04/11 16:40:33;;;;;;;;;;;;;;;;;;5072892;28;7536;-70
2023/04/11 16:42:58;;;;;;;;;;;;;;;;;;5073304;28;7533;-69
2023/04/11 16:45:24;;;;;;;;;;;;;;;;;;5072007;28;7529;-66
2023/04/11 16:47:49;;;;;;;;;;;;;;;;;;5073204;28;8021;-67
2023/04/11 16:50:14;;;;;;;;;;;;;;;;;;5073241;28;7533;-71
2023/04/11 16:52:39;;;;;;;;;;;;;;;;;;5071398;28;7540;-71
2023/04/11 16:55:05;;;;;;;;;;;;;;;;;;5072863;28;7528;-69
2023/04/11 16:57:31;;;;;;;;;;;;;;;;;;5072672;28;7979;-70
2023/04/11 16:59:57;;;;;;;;;;;;;;;;;;5072655;28;7543;-69
2023/04/11 17:02:22;;;;;;;;;;;;;;;;;;5072785;28;7528;-68
2023/04/11 17:04:47;;;;;;;;;;;;;;;;;;5072576;28;7540;-68
2023/04/11 17:07:12;;;;;;;;;;;;;;;;;;5087562;28;7532;-69
2023/04/11 17:09:37;;;;;;;;;;;;;;;;;;5091113;28;7520;-71
2023/04/11 17:12:02;;;;;;;;;;;;;;;;;;5092576;28;7528;-70
2023/04/11 17:14:28;;;;;;;;;;;;;;;;;;5092715;28;7539;-73
2023/04/11 17:16:53;;;;;;;;;;;;;;;;;;5092531;28;8085;-73
2023/04/11 17:19:18;;;;;;;;;;;;;;;;;;5092376;28;7535;-71
2023/04/11 17:21:43;;;;;;;;;;;;;;;;;;5092260;28;7524;-71
2023/04/11 17:24:08;;;;;;;;;;;;;;;;;;5092201;28;7528;-71
2023/04/11 17:26:33;;;;;;;;;;;;;;;;;;5092533;28;7619;-68
2023/04/11 17:28:59;;;;;;;;;;;;;;;;;;5092343;28;7531;-69
2023/04/11 17:31:26;;;;;;;;;;;;;;;;;;5092559;28;7543;-67
2023/04/11 17:33:51;;;;;;;;;;;;;;;;;;5097925;28;7626;-68
2023/04/11 17:36:16;;;;;;;;;;;;;;;;;;5103607;28;7972;-66
2023/04/11 17:38:42;;;;;;;;;;;;;;;;;;5090799;28;7619;-65
2023/04/11 17:41:07;;;;;;;;;;;;;;;;;;5091943;28;7615;-65
2023/04/11 17:43:32;;;;;;;;;;;;;;;;;;5092290;28;7558;-64
2023/04/11 17:45:57;;;;;;;;;;;;;;;;;;5092093;28;7570;-64
2023/04/11 17:48:22;;;;;;;;;;;;;;;;;;5091703;28;7532;-65
2023/04/11 17:50:48;;;;;;;;;;;;;;;;;;5092134;28;7577;-66
2023/04/11 17:53:13;;;;;;;;;;;;;;;;;;5091632;28;7535;-65
2023/04/11 17:55:38;;;;;;;;;;;;;;;;;;5091783;28;7546;-67
2023/04/11 17:58:03;;;;;;;;;;;;;;;;;;5091754;28;7536;-66
2023/04/11 18:00:29;;;;;;;;;;;;;;;;;;5091908;28;7557;-66
2023/04/11 18:02:56;;;;;;;;;;;;;;;;;;5091842;28;8002;-66
2023/04/11 18:05:21;;;;;;;;;;;;;;;;;;5091423;28;7539;-65
2023/04/11 18:07:46;;;;;;;;;;;;;;;;;;5091027;28;7536;-64
2023/04/11 18:10:13;;;;;;;;;;;;;;;;;;5091608;28;7996;-66
2023/04/11 18:12:39;;;;;;;;;;;;;;;;;;5105579;28;7582;-66
2023/04/11 18:15:07;;;;;;;;;;;;;;;;;;5090007;28;7520;-66
2023/04/11 18:17:32;;;;;;;;;;;;;;;;;;5091796;28;7520;-65
2023/04/11 18:19:59;;;;;;;;;;;;;;;;;;5091450;28;7535;-68
2023/04/11 18:22:24;;;;;;;;;;;;;;;;;;5091092;28;7619;-67
2023/04/11 18:24:49;;;;;;;;;;;;;;;;;;5089823;28;7540;-65
2023/04/11 18:27:15;;;;;;;;;;;;;;;;;;5091403;28;7536;-67
2023/04/11 18:29:40;;;;;;;;;;;;;;;;;;5091563;28;7544;-65
2023/04/11 18:32:05;;;;;;;;;;;;;;;;;;5110473;28;7527;-66
2023/04/11 18:34:30;;;;;;;;;;;;;;;;;;5112145;28;7551;-65
2023/04/11 18:36:55;;;;;;;;;;;;;;;;;;5097566;28;7570;-64
2023/04/11 18:39:21;;;;;;;;;;;;;;;;;;5090056;28;7951;-65
2023/04/11 18:41:46;;;;;;;;;;;;;;;;;;5091096;28;7532;-64
2023/04/11 18:44:12;;;;;;;;;;;;;;;;;;5091348;28;7520;-62
2023/04/11 18:46:37;;;;;;;;;;;;;;;;;;5091311;28;7536;-65
2023/04/11 18:49:03;;;;;;;;;;;;;;;;;;5091331;28;7929;-66
2023/04/11 18:51:28;;;;;;;;;;;;;;;;;;5091256;28;7990;-65
2023/04/11 18:53:53;;;;;;;;;;;;;;;;;;5091311;28;7607;-64
2023/04/11 18:56:18;;;;;;;;;;;;;;;;;;5091100;28;7601;-63
2023/04/11 18:58:43;;;;;;;;;;;;;;;;;;5090884;28;7528;-63
2023/04/11 19:01:08;;;;;;;;;;;;;;;;;;5084836;28;8029;-63
2023/04/11 19:03:33;;;;;;;;;;;;;;;;;;5074654;28;7528;-64
2023/04/11 19:05:58;;;;;;;;;;;;;;;;;;5077347;28;7524;-64
2023/04/11 19:08:24;;;;;;;;;;;;;;;;;;5091150;28;7601;-64
2023/04/11 19:10:49;;;;;;;;;;;;;;;;;;5097213;28;7630;-63
2023/04/11 19:13:14;;;;;;;;;;;;;;;;;;5096773;28;7983;-63
2023/04/11 19:15:40;;;;;;;;;;;;;;;;;;5100504;28;7557;-63
2023/04/11 19:18:06;;;;;;;;;;;;;;;;;;5097920;28;7543;-63
2023/04/11 19:20:31;;;;;;;;;;;;;;;;;;5104657;28;7519;-64
2023/04/11 19:22:56;;;;;;;;;;;;;;;;;;5115562;28;7527;-64
2023/04/11 19:25:21;;;;;;;;;;;;;;;;;;5115576;28;7516;-64
2023/04/11 19:27:47;;;;;;;;;;;;;;;;;;5115318;28;7547;-64
2023/04/11 19:30:12;;;;;;;;;;;;;;;;;;5108312;28;7536;-63
2023/04/11 19:32:41;;;;;;;;;;;;;;;;;;5083977;28;7521;-63
2023/04/11 19:35:07;;;;;;;;;;;;;;;;;;5074714;28;7517;-63
2023/04/11 19:37:32;;;;;;;;;;;;;;;;;;5093777;28;7515;-63
2023/04/11 19:39:57;;;;;;;;;;;;;;;;;;5094249;28;7536;-64
2023/04/11 19:42:23;;;;;;;;;;;;;;;;;;5093402;28;7540;-64
2023/04/11 19:44:48;;;;;;;;;;;;;;;;;;5091911;28;7545;-62
2023/04/11 19:47:14;;;;;;;;;;;;;;;;;;5093199;28;7540;-63
2023/04/11 19:49:39;;;;;;;;;;;;;;;;;;5093349;28;7536;-63
2023/04/11 19:52:04;;;;;;;;;;;;;;;;;;5093328;28;8007;-64
2023/04/11 19:54:31;;;;;;;;;;;;;;;;;;5093038;28;7681;-64
2023/04/11 19:56:57;;;;;;;;;;;;;;;;;;5093097;28;7524;-64
2023/04/11 19:59:22;;;;;;;;;;;;;;;;;;5093300;28;7548;-64
2023/04/11 20:01:47;;;;;;;;;;;;;;;;;;5091484;28;7516;-63
2023/04/11 20:04:14;;;;;;;;;;;;;;;;;;5093143;28;7582;-64
2023/04/11 20:06:42;;;;;;;;;;;;;;;;;;5093116;28;7532;-64
2023/04/11 20:09:07;;;;;;;;;;;;;;;;;;5093267;28;7543;-64
2023/04/11 20:11:33;;;;;;;;;;;;;;;;;;5092567;28;7532;-63
2023/04/11 20:13:58;;;;;;;;;;;;;;;;;;5092862;28;7618;-66
2023/04/11 20:16:24;;;;;;;;;;;;;;;;;;5092877;28;7516;-62
2023/04/11 20:18:51;;;;;;;;;;;;;;;;;;5094272;28;7589;-63
2023/04/11 20:21:16;;;;;;;;;;;;;;;;;;5093861;28;7611;-65
2023/04/11 20:23:41;;;;;;;;;;;;;;;;;;5071584;28;7983;-64
2023/04/11 20:26:06;;;;;;;;;;;;;;;;;;5079347;28;7586;-64
2023/04/11 20:28:32;;;;;;;;;;;;;;;;;;5093318;28;7544;-64
2023/04/11 20:30:57;;;;;;;;;;;;;;;;;;5093232;28;7618;-64
2023/04/11 20:33:23;;;;;;;;;;;;;;;;;;5091355;28;7543;-64
2023/04/11 20:35:48;;;;;;;;;;;;;;;;;;5087152;28;7535;-63
2023/04/11 20:38:13;;;;;;;;;;;;;;;;;;5093490;28;7532;-64
2023/04/11 20:40:38;;;;;;;;;;;;;;;;;;5093409;28;7536;-64
2023/04/11 20:43:04;;;;;;;;;;;;;;;;;;5093680;28;7684;-64
2023/04/11 20:45:31;;;;;;;;;;;;;;;;;;5091830;28;8077;-63
2023/04/11 20:48:00;;;;;;;;;;;;;;;;;;5082214;28;7529;-63
2023/04/11 20:50:32;;;;;;;;;;;;;;;;;;5084798;28;7584;-65
2023/04/11 20:52:57;;;;;;;;;;;;;;;;;;5092905;28;7623;-65
2023/04/11 20:55:24;;;;;;;;;;;;;;;;;;5093227;28;7531;-64
2023/04/11 20:57:49;;;;;;;;;;;;;;;;;;5093391;28;7520;-64
2023/04/11 21:00:15;;;;;;;;;;;;;;;;;;5091842;28;7520;-63
2023/04/11 21:02:41;;;;;;;;;;;;;;;;;;5091762;28;7637;-64
2023/04/11 21:05:07;;;;;;;;;;;;;;;;;;5091643;28;7524;-64
2023/04/11 21:07:32;;;;;;;;;;;;;;;;;;5091422;28;7520;-64
2023/04/11 21:09:57;;;;;;;;;;;;;;;;;;5091604;28;7578;-63
2023/04/11 21:12:22;;;;;;;;;;;;;;;;;;5091495;28;7611;-63
2023/04/11 21:14:47;;;;;;;;;;;;;;;;;;5091774;28;7516;-64
2023/04/11 21:17:13;;;;;;;;;;;;;;;;;;5090375;28;7593;-64
2023/04/11 21:19:38;;;;;;;;;;;;;;;;;;5091476;28;7576;-64
2023/04/11 21:22:03;;;;;;;;;;;;;;;;;;5090866;28;7520;-64
2023/04/11 21:24:28;;;;;;;;;;;;;;;;;;5091740;28;7527;-64
2023/04/11 21:26:53;;;;;;;;;;;;;;;;;;5091099;28;7583;-62
2023/04/11 21:29:18;;;;;;;;;;;;;;;;;;5091665;28;7516;-63
2023/04/11 21:31:43;;;;;;;;;;;;;;;;;;5091467;28;7520;-63
2023/04/11 21:34:09;;;;;;;;;;;;;;;;;;5091428;28;7569;-63
2023/04/11 21:36:34;;;;;;;;;;;;;;;;;;5089317;28;7536;-63
2023/04/11 21:38:59;;;;;;;;;;;;;;;;;;5085136;28;7539;-64
2023/04/11 21:41:24;;;;;;;;;;;;;;;;;;5085970;28;7540;-63
2023/04/11 21:43:49;;;;;;;;;;;;;;;;;;5088870;28;7543;-62
2023/04/11 21:46:15;;;;;;;;;;;;;;;;;;5092161;28;7524;-63
2023/04/11 21:48:41;;;;;;;;;;;;;;;;;;5092333;28;7538;-63
2023/04/11 21:51:07;;;;;;;;;;;;;;;;;;5092015;28;8185;-61
2023/04/11 21:53:32;;;;;;;;;;;;;;;;;;5087343;28;8056;-62
2023/04/11 21:55:57;;;;;;;;;;;;;;;;;;5088605;28;7528;-62
2023/04/11 21:58:22;;;;;;;;;;;;;;;;;;5089770;28;7593;-63
2023/04/11 22:00:47;;;;;;;;;;;;;;;;;;5091312;28;7540;-62
2023/04/11 22:03:16;;;;;;;;;;;;;;;;;;5091419;28;7611;-62
2023/04/11 22:05:41;;;;;;;;;;;;;;;;;;5091428;28;7998;-63
2023/04/11 22:08:09;;;;;;;;;;;;;;;;;;5091395;28;7920;-63
2023/04/11 22:10:40;;;;;;;;;;;;;;;;;;5091259;28;7569;-62
2023/04/11 22:13:06;;;;;;;;;;;;;;;;;;5091668;28;7524;-63
2023/04/11 22:15:32;;;;;;;;;;;;;;;;;;5092420;28;7547;-63
2023/04/11 22:18:00;;;;;;;;;;;;;;;;;;5092003;28;7520;-64
2023/04/11 22:20:26;;;;;;;;;;;;;;;;;;5091803;28;7963;-63
2023/04/11 22:22:51;;;;;;;;;;;;;;;;;;5092159;28;7578;-63
2023/04/11 22:25:17;;;;;;;;;;;;;;;;;;5091423;28;7520;-63
2023/04/11 22:27:43;;;;;;;;;;;;;;;;;;5090144;28;7536;-64
2023/04/11 22:30:09;;;;;;;;;;;;;;;;;;5091072;28;7573;-65
2023/04/11 22:32:35;;;;;;;;;;;;;;;;;;5091310;28;7524;-66
2023/04/11 22:35:00;;;;;;;;;;;;;;;;;;5090109;28;7544;-65
2023/04/11 22:37:26;;;;;;;;;;;;;;;;;;5089979;28;7524;-65
2023/04/11 22:39:51;;;;;;;;;;;;;;;;;;5091547;28;7543;-66
2023/04/11 22:42:16;;;;;;;;;;;;;;;;;;5091492;28;7512;-65
2023/04/11 22:44:41;;;;;;;;;;;;;;;;;;5091293;28;7539;-65
2023/04/11 22:47:06;;;;;;;;;;;;;;;;;;5091418;28;7614;-66
2023/04/11 22:49:31;;;;;;;;;;;;;;;;;;5090958;28;7528;-64
2023/04/11 22:52:00;;;;;;;;;;;;;;;;;;5091153;28;7539;-65
2023/04/11 22:54:26;;;;;;;;;;;;;;;;;;5091067;28;7589;-65
2023/04/11 22:56:55;;;;;;;;;;;;;;;;;;5089509;28;7520;-65
2023/04/11 22:59:20;;;;;;;;;;;;;;;;;;5089691;28;7605;-65
2023/04/11 23:01:45;;;;;;;;;;;;;;;;;;5091243;28;7521;-65
2023/04/11 23:04:11;;;;;;;;;;;;;;;;;;5090891;28;7619;-65
2023/04/11 23:06:36;;;;;;;;;;;;;;;;;;5090995;28;7528;-65
2023/04/11 23:09:01;;;;;;;;;;;;;;;;;;5091034;28;7629;-65
2023/04/11 23:11:26;;;;;;;;;;;;;;;;;;5089615;28;7520;-65
2023/04/11 23:13:52;;;;;;;;;;;;;;;;;;5091282;28;7532;-65
2023/04/11 23:16:17;;;;;;;;;;;;;;;;;;5086838;22;7540;-65
2023/04/11 23:18:42;;;;;;;;;;;;;;;;;;5050491;28;7545;-65
2023/04/11 23:21:08;;;;;;;;;;;;;;;;;;5050423;28;7639;-65
2023/04/11 23:23:33;;;;;;;;;;;;;;;;;;5050424;28;7988;-65
2023/04/11 23:25:58;;;;;;;;;;;;;;;;;;5050386;28;7562;-65
2023/04/11 23:28:24;;;;;;;;;;;;;;;;;;5050462;28;7632;-65
2023/04/11 23:30:49;;;;;;;;;;;;;;;;;;5050379;28;7520;-65
2023/04/11 23:33:14;;;;;;;;;;;;;;;;;;5050619;28;7532;-65
2023/04/11 23:35:40;;;;;;;;;;;;;;;;;;5054078;28;7635;-65
2023/04/11 23:38:05;;;;;;;;;;;;;;;;;;5070444;28;7548;-65
2023/04/11 23:40:31;;;;;;;;;;;;;;;;;;5070371;28;7532;-63
2023/04/11 23:42:56;;;;;;;;;;;;;;;;;;5068904;28;7520;-63
2023/04/11 23:45:22;;;;;;;;;;;;;;;;;;5070595;28;7524;-63
2023/04/11 23:47:47;;;;;;;;;;;;;;;;;;5070729;28;7627;-63
2023/04/11 23:50:12;;;;;;;;;;;;;;;;;;5070637;28;7537;-63
2023/04/11 23:52:38;;;;;;;;;;;;;;;;;;5070592;28;7524;-62
2023/04/11 23:55:03;;;;;;;;;;;;;;;;;;5070701;28;7951;-62
2023/04/11 23:57:29;;;;;;;;;;;;;;;;;;5069342;28;7524;-62
2023/04/11 23:59:54;;;;;;;;;;;;;;;;;;5070186;28;7658;-62
